首页
METAR-TAF:

METAR-TAF

机场 :

杜林機場

都灵, 意大利

纬度: 45-13N, 经度: 007-39E, 海拔: 301米

当前天气观测

该预报发布于34分钟前的10:20 UTC
风速3节,风向多变
温度 11°C
湿度 58%
气压 1016 hPa
能见度10公里或以上
1500米以下无云,无积雨云

METAR: LIMF 051020Z VRB03KT CAVOK 11/03 Q1016

时间: 11:54 (10:54 UTC)

预报

该预报发布于5小时和54分钟前的05:00 UTC
预报有效从05日的 06点(UTC)到 06日的 06点(UTC)
风速4节,风向多变
能見度: 8000
成为
从 05日的 23点(UTC)到 06日的 01点(UTC)
能見度: 4000
多云层高于1400英尺
多云层高于3000英尺
阵雨

TAF: LIMF 050500Z 0506/0606 VRB04KT 8000 NSC BECMG 0523/0601 4000 SHRA BKN014 BKN030

超过4000个机场的气象观测和天气预报(METAR&TAF报告)。

可查询的气象台以黄色和红色小点在地图上表示。

将鼠标移到小点上方,可查看气象台名称。

然后点击查看天气观测和预报。

如需切换地图:点击带黑十字的绿色按钮放大地图;点击带横线的绿色按钮缩小地图;或者点击绿色箭头查看邻近地区的地图。


METAR-TAF: